Raúl Bianchi

Recruteur - Boca Juniors
19 Août 2027
Jeudi
Processus

Personnalité

Adaptabilité (4) Ambition (3) Controverse (2) Loyauté (17) Pression (1) Professionnalisme (16) Sportivité (5) Tempérament (17)

Profil

Style d'entraînement Démocratique
Diplôme Continental A
Détermination 7
Gestion des joueurs 14
Motivation 15
Discipline 6
Satisfaction professionnelle
100%
Fatigue
0%
Rôle Recruteur
Salaire 74.5K p/s
Contrat 14.03.2030

Performance

Comportement Bon
Efficacité de l'entraînement
49%
Développement des joueurs
45%
Prévention des blessures
45%
Mise en place tactique
45%

Événements récents

A participé à une réunion de recrutement maintenant
A recommandé une cible de transfert maintenant
A participé à une réunion de recrutement 7j
A recommandé une cible de transfert 7j
A participé à une réunion de recrutement 7j
A participé à une réunion de recrutement 7j
A participé à une réunion de recrutement 14j
A participé à une réunion de recrutement 14j

Suivi en cours

91
Joueur Club Statut Capacité Confiance Observé Dernière observation Dernier vote
Jofre Torrents Ajax Actif 129 / 134 40% 1 19.07.2027 -
Robin Fellhauer FC Augsburg Actif 139 / 143 40% 1 19.07.2027 -
Zeki Çelik Juventus Perdu 145 / 136 40% 1 19.07.2027 -
Leandro Vilte Central Norte Actif 88 / 91 66% 2 / 2m 09.06.2027 Approuver
Ángel González Ferro Carril Oeste Actif 119 / 119 52% 1 / 1m 09.06.2027 -
Rodrigo Mora AS Roma Actif 138 / 132 40% 1 31.05.2027 -
Francisco Trincão Zenit Actif 164 / 159 40% 1 31.05.2027 -
Lautaro Millán Aston Villa Actif 128 / 138 40% 1 31.05.2027 -
Wendel Zenit Perdu 143 / 130 40% 3 24.05.2027 -
Marvin Keller Bayer Leverkusen Actif 138 / 136 40% 3 24.05.2027 -
Thierry Rendall Correia Venezia Actif 143 / 143 40% 6 14.05.2027 -
Facundo Di Biasi Gimnasia La Plata Actif 117 / 124 40% 1 14.05.2027 -
Josh King Chelsea Actif 133 / 140 40% 3 13.05.2027 -
Valentín Gómez Barcelona Actif 140 / 152 40% 1 13.05.2027 -
Yasin Ayari Arsenal Actif 145 / 145 40% 3 10.05.2027 -
Luka Vušković Manchester United Actif 144 / 137 40% 2 10.05.2027 -
Finn Jeltsch VfB Stuttgart Actif 131 / 127 40% 3 02.05.2027 -
Federico Pereira Estudiantes Actif 141 / 142 40% 1 02.05.2027 -
Dean Huijsen Villarreal Actif 140 / 144 40% 6 01.05.2027 -
Ngal'Ayel Mukau Paris Saint-Germain Actif 137 / 141 40% 5 23.04.2027 -
Ulises Delgado All Boys Actif 112 / 115 42% 1 / 1m 21.04.2027 -
Fabricio Hass Central Norte Actif 111 / 111 30% 1 / 1m 21.04.2027 -
Gastón Espósito Güemes Actif 112 / 112 30% 1 / 1m 21.04.2027 -
Mateo Burgan Temperley Actif 87 / 92 30% 1 / 1m 21.04.2027 -
Mateo Díaz Chaves Chaco For Ever Actif 110 / 113 30% 1 / 1m 21.04.2027 -
Gonzalo Salega Patronato Actif 108 / 108 30% 1 / 1m 21.04.2027 -
Lucas González Estudiantes Actif 121 / 121 52% 1 / 1m 21.04.2027 -
Nicolás Utrera Colón Actif 110 / 113 42% 1 / 1m 21.04.2027 -
Diogo Costa Manchester City Actif 164 / 164 40% 2 18.04.2027 -
Maxime Estève RB Leipzig Actif 143 / 148 40% 4 13.04.2027 -
Samú Al-Nassr Actif 142 / 153 40% 1 13.04.2027 -
Théo Hernández Al-Hilal Actif 151 / 160 40% 4 10.04.2027 -
Yacine Adli Al-Shabab Actif 142 / 145 40% 4 08.04.2027 -
Nino Zenit Perdu 142 / 132 40% 4 08.04.2027 -
Elia Caprile Newcastle United Actif 140 / 152 40% 1 04.04.2027 -
Rúben Neves Al-Hilal Actif 154 / 150 40% 3 01.04.2027 -
Christ Inao Oulaï Fiorentina Actif 139 / 150 40% 1 01.04.2027 -
Mohamed Simakan Al-Nassr Actif 142 / 128 40% 2 19.03.2027 -
Merih Demiral Al-Ahli Actif 137 / 140 40% 1 17.03.2027 -
Yves Bissouma Tottenham Actif 145 / 132 40% 3 10.03.2027 -
Karim Coulibaly RC Strasbourg Actif 118 / 117 40% 1 05.03.2027 -
Nicolò Savona Nottingham Forest Actif 140 / 143 40% 1 23.02.2027 -
Chema Andrés Arsenal Actif 135 / 135 40% 1 18.02.2027 -
Valentin Atangana Al-Ahli Actif 127 / 117 40% 1 12.02.2027 -
Jonathan De Irastorza Independiente Actif 121 / 131 40% 1 08.02.2027 Plus d'infos
Joane Gadou Borussia Dortmund Actif 127 / 121 40% 1 14.01.2027 -
Maxim De Cuyper Brighton Actif 134 / 125 40% 1 12.01.2027 -
Santiago Fernández Talleres Actif 118 / 128 40% 1 09.01.2027 -
Ignacio Perruzzi San Lorenzo Actif 121 / 131 40% 1 06.01.2027 -
Bento Al-Nassr Actif 129 / 122 40% 3 27.12.2026 -
Djed Spence Inter Actif 150 / 160 40% 7 24.11.2026 Observer
Marcos Senesi Tottenham Actif 147 / 151 40% 2 22.11.2026 -
Sergi Domínguez Dinamo Zagreb Actif 117 / 140 40% 1 03.11.2026 -
Abdoulkarim Traoré Al Ain Actif 126 / 127 40% 1 01.11.2026 -
Walid Ismail Al Shabab Actif 146 / 153 40% 5 25.10.2026 -
Mbekezeli Mbokazi Chicago Fire Actif 129 / 140 40% 1 24.10.2026 -
Ibrahim Maza Bayer Leverkusen Actif 135 / 133 40% 2 22.10.2026 -
Christos Mouzakitis Hull City Actif 129 / 151 40% 1 13.10.2026 -
Mattéo Guendouzi Fenerbahce Actif 154 / 141 40% 7 05.10.2026 -
Francesco Pio Esposito Inter Actif 146 / 154 40% 2 05.10.2026 -
Gabriel Jesus Barcelona Actif 156 / 142 40% 8 17.09.2026 -
Nahuel Herrera Penarol Actif 128 / 119 40% 1 03.09.2026 -
Agustín Alonso Chaco For Ever Actif 114 / 114 30% 1 / 1m 26.08.2026 -
Federico Sellecchia Agropecuario Argentino Actif 114 / 114 42% 1 / 1m 26.08.2026 -
Facundo Lencioni Gimnasia y Esgrima Actif 122 / 122 42% 1 / 1m 26.08.2026 Plus d'infos
Tobías Zárate Almirante Brown Actif 105 / 105 52% 1 / 1m 26.08.2026 -
Lucas Vega Almirante Brown Actif 97 / 100 52% 1 / 1m 26.08.2026 -
Diego Arroyo Nueva Chicago Actif 106 / 109 42% 1 / 1m 26.08.2026 -
Víctor Barrera Maipú Actif 90 / 95 42% 1 / 1m 19.08.2026 -
Máximo Paredes Quilmes Actif 104 / 109 42% 1 / 1m 19.08.2026 -
Danilo Ruiz Díaz Agropecuario Argentino Actif 116 / 119 52% 1 / 1m 19.08.2026 -
Franco Aguirre San Telmo Actif 105 / 105 30% 1 / 1m 19.08.2026 -
Enzo Gaggi Chaco For Ever Actif 115 / 115 52% 1 / 1m 19.08.2026 -
Matías Ferrari Chaco For Ever Actif 110 / 110 30% 1 / 1m 19.08.2026 -
Mateo Muñoz Talleres Actif 92 / 95 30% 1 / 1m 19.08.2026 -
Nicolás Romano Gimnasia y Esgrima Actif 121 / 121 42% 1 / 1m 19.08.2026 -
Leandro Ciccolini Gimnasia y Esgrima Actif 120 / 120 30% 1 / 1m 19.08.2026 -
Javier Ferreira Estudiantes Actif 117 / 117 52% 1 / 1m 19.08.2026 -
Alejo Mainero Estudiantes Actif 101 / 101 42% 1 / 1m 19.08.2026 -
Facundo De La Vega Aldosivi Actif 103 / 106 52% 1 / 1m 19.08.2026 -
Uriel La Roza Arsenal Actif 111 / 116 52% 1 / 1m 19.08.2026 -
Lautaro Aguirre Arsenal Actif 73 / 78 42% 1 / 1m 19.08.2026 -
Nahuel Denis Gimnasia y Esgrima Actif 98 / 101 30% 1 / 1m 19.08.2026 -
Evelio Cardozo Nueva Chicago Actif 110 / 110 42% 1 / 1m 19.08.2026 -
Orkun Kökçü Besiktas Actif 150 / 144 40% 1 18.08.2026 -
Senne Lammens Manchester United Actif 148 / 140 40% 1 05.08.2026 -
Murillo Nottingham Forest Actif 151 / 161 40% 1 05.08.2026 -
Alexander Nübel Besiktas Actif 145 / 135 40% 1 03.08.2026 -
Guillaume Restes Toulouse FC Actif 130 / 143 40% 1 03.08.2026 -
Ousmane Diomande Nottingham Forest Actif 146 / 169 40% 1 03.08.2026 -
Adrien Truffert Bournemouth Actif 150 / 138 40% 1 01.08.2026 -